sensor_id;sensor_type;location;lat;lon;timestamp;pressure;altitude;pressure_sealevel;temperature;humidity
75063;BME280;63981;51.052;13.754;2023-04-01T00:00:45;98578.16;;;10.58;72.55
75063;BME280;63981;51.052;13.754;2023-04-01T00:03:11;98621.81;;;10.70;73.74
75063;BME280;63981;51.052;13.754;2023-04-01T00:05:37;98612.56;;;10.47;75.02
75063;BME280;63981;51.052;13.754;2023-04-01T00:08:03;98615.06;;;10.48;74.79
75063;BME280;63981;51.052;13.754;2023-04-01T00:10:28;98619.91;;;10.33;75.55
75063;BME280;63981;51.052;13.754;2023-04-01T00:12:54;98525.25;;;9.93;74.84
75063;BME280;63981;51.052;13.754;2023-04-01T00:15:20;98562.94;;;10.03;75.14
75063;BME280;63981;51.052;13.754;2023-04-01T00:17:46;98610.63;;;10.39;75.87
75063;BME280;63981;51.052;13.754;2023-04-01T00:20:12;98437.75;;;9.43;75.32
75063;BME280;63981;51.052;13.754;2023-04-01T00:22:37;98605.88;;;10.62;74.46
75063;BME280;63981;51.052;13.754;2023-04-01T00:25:04;98609.50;;;10.51;74.51
75063;BME280;63981;51.052;13.754;2023-04-01T00:27:30;98608.56;;;10.43;74.52
75063;BME280;63981;51.052;13.754;2023-04-01T00:29:56;98568.91;;;10.25;74.75
75063;BME280;63981;51.052;13.754;2023-04-01T00:32:21;98605.63;;;10.55;74.63
75063;BME280;63981;51.052;13.754;2023-04-01T00:34:50;98606.41;;;10.66;73.80
75063;BME280;63981;51.052;13.754;2023-04-01T00:37:17;98605.97;;;10.80;73.15
75063;BME280;63981;51.052;13.754;2023-04-01T00:39:43;98582.91;;;10.25;74.52
75063;BME280;63981;51.052;13.754;2023-04-01T00:42:10;98616.81;;;10.67;74.13
75063;BME280;63981;51.052;13.754;2023-04-01T00:44:36;98618.47;;;10.78;73.03
75063;BME280;63981;51.052;13.754;2023-04-01T00:47:02;98613.38;;;10.57;74.43
75063;BME280;63981;51.052;13.754;2023-04-01T00:49:35;98618.91;;;10.63;73.88
75063;BME280;63981;51.052;13.754;2023-04-01T00:52:03;98574.47;;;10.22;74.95
75063;BME280;63981;51.052;13.754;2023-04-01T00:54:31;98584.72;;;10.25;75.00
75063;BME280;63981;51.052;13.754;2023-04-01T00:57:01;98623.53;;;10.42;75.71
75063;BME280;63981;51.052;13.754;2023-04-01T00:59:32;98614.22;;;10.48;75.30
75063;BME280;63981;51.052;13.754;2023-04-01T01:02:04;98614.50;;;10.45;74.91
75063;BME280;63981;51.052;13.754;2023-04-01T01:04:33;98619.09;;;10.43;75.91
75063;BME280;63981;51.052;13.754;2023-04-01T01:07:26;98622.28;;;10.37;75.77
75063;BME280;63981;51.052;13.754;2023-04-01T01:10:22;98608.41;;;10.44;74.82
75063;BME280;63981;51.052;13.754;2023-04-01T01:18:34;98612.00;;;10.53;74.22
75063;BME280;63981;51.052;13.754;2023-04-01T01:21:24;98601.97;;;10.66;73.19
75063;BME280;63981;51.052;13.754;2023-04-01T01:26:59;98600.69;;;10.80;72.82
75063;BME280;63981;51.052;13.754;2023-04-01T01:29:41;98607.88;;;10.97;72.01
75063;BME280;63981;51.052;13.754;2023-04-01T01:32:27;98610.03;;;10.64;73.33
75063;BME280;63981;51.052;13.754;2023-04-01T01:37:45;98610.47;;;10.50;73.54
75063;BME280;63981;51.052;13.754;2023-04-01T01:40:13;98608.97;;;10.48;73.51
75063;BME280;63981;51.052;13.754;2023-04-01T01:42:45;98591.63;;;10.26;73.96
75063;BME280;63981;51.052;13.754;2023-04-01T01:45:13;98603.94;;;10.64;72.65
75063;BME280;63981;51.052;13.754;2023-04-01T01:47:43;98601.97;;;10.66;72.73
75063;BME280;63981;51.052;13.754;2023-04-01T01:50:11;98605.59;;;10.65;72.04
75063;BME280;63981;51.052;13.754;2023-04-01T01:52:37;98576.66;;;10.36;72.47
75063;BME280;63981;51.052;13.754;2023-04-01T01:55:27;98611.16;;;10.62;72.54
75063;BME280;63981;51.052;13.754;2023-04-01T01:57:57;98616.16;;;10.46;73.43
75063;BME280;63981;51.052;13.754;2023-04-01T02:00:25;98618.22;;;10.81;72.04
75063;BME280;63981;51.052;13.754;2023-04-01T02:02:52;98619.50;;;10.57;71.83
75063;BME280;63981;51.052;13.754;2023-04-01T02:05:22;98607.25;;;10.66;72.32
75063;BME280;63981;51.052;13.754;2023-04-01T02:08:23;98616.81;;;10.67;72.20
75063;BME280;63981;51.052;13.754;2023-04-01T02:11:02;98607.16;;;10.39;73.12
75063;BME280;63981;51.052;13.754;2023-04-01T02:13:39;98590.66;;;10.27;73.63
75063;BME280;63981;51.052;13.754;2023-04-01T02:16:12;98590.13;;;10.33;73.27
75063;BME280;63981;51.052;13.754;2023-04-01T02:18:39;98604.28;;;10.88;71.76
75063;BME280;63981;51.052;13.754;2023-04-01T02:21:07;98598.78;;;10.72;71.57
75063;BME280;63981;51.052;13.754;2023-04-01T02:23:36;98615.56;;;10.81;71.81
75063;BME280;63981;51.052;13.754;2023-04-01T02:26:06;98607.00;;;10.59;72.46
75063;BME280;63981;51.052;13.754;2023-04-01T02:28:33;98615.06;;;10.48;72.55
75063;BME280;63981;51.052;13.754;2023-04-01T02:31:00;98504.06;;;9.75;73.00
75063;BME280;63981;51.052;13.754;2023-04-01T02:33:28;98618.53;;;10.49;73.37
75063;BME280;63981;51.052;13.754;2023-04-01T02:35:54;98615.88;;;10.49;73.24
75063;BME280;63981;51.052;13.754;2023-04-01T02:38:20;98597.59;;;10.18;73.76
75063;BME280;63981;51.052;13.754;2023-04-01T02:40:52;98587.88;;;10.19;73.55
75063;BME280;63981;51.052;13.754;2023-04-01T02:43:21;98623.78;;;10.58;72.23
75063;BME280;63981;51.052;13.754;2023-04-01T02:45:47;98610.84;;;10.65;71.67
75063;BME280;63981;51.052;13.754;2023-04-01T02:48:13;98621.41;;;10.65;72.02
75063;BME280;63981;51.052;13.754;2023-04-01T02:50:40;98630.28;;;10.54;71.76
75063;BME280;63981;51.052;13.754;2023-04-01T02:53:06;98617.84;;;10.56;71.60
75063;BME280;63981;51.052;13.754;2023-04-01T02:55:33;98623.25;;;10.55;71.53
75063;BME280;63981;51.052;13.754;2023-04-01T02:57:59;98634.47;;;10.57;71.77
75063;BME280;63981;51.052;13.754;2023-04-01T03:00:25;98630.56;;;10.51;71.93
75063;BME280;63981;51.052;13.754;2023-04-01T03:02:52;98635.72;;;10.33;72.60
75063;BME280;63981;51.052;13.754;2023-04-01T03:05:18;98625.88;;;10.26;72.63
75063;BME280;63981;51.052;13.754;2023-04-01T03:07:44;98590.53;;;10.38;71.93
75063;BME280;63981;51.052;13.754;2023-04-01T03:10:10;98630.56;;;10.51;71.93
75063;BME280;63981;51.052;13.754;2023-04-01T03:12:36;98645.69;;;10.49;72.40
75063;BME280;63981;51.052;13.754;2023-04-01T03:15:02;98636.09;;;10.68;72.08
75063;BME280;63981;51.052;13.754;2023-04-01T03:17:29;98638.19;;;10.64;71.82
75063;BME280;63981;51.052;13.754;2023-04-01T03:19:54;98642.63;;;10.63;72.39
75063;BME280;63981;51.052;13.754;2023-04-01T03:22:20;98644.03;;;10.58;72.08
75063;BME280;63981;51.052;13.754;2023-04-01T03:24:48;98588.56;;;10.21;71.22
75063;BME280;63981;51.052;13.754;2023-04-01T03:27:13;98616.59;;;10.31;72.00
75063;BME280;63981;51.052;13.754;2023-04-01T03:29:40;98639.03;;;10.36;72.27
75063;BME280;63981;51.052;13.754;2023-04-01T03:32:06;98650.41;;;10.55;71.83
75063;BME280;63981;51.052;13.754;2023-04-01T03:34:31;98654.44;;;10.30;72.40
75063;BME280;63981;51.052;13.754;2023-04-01T03:36:58;98655.97;;;10.33;72.74
75063;BME280;63981;51.052;13.754;2023-04-01T03:39:24;98654.44;;;10.50;71.51
75063;BME280;63981;51.052;13.754;2023-04-01T03:41:51;98643.63;;;10.43;71.97
75063;BME280;63981;51.052;13.754;2023-04-01T03:44:16;98648.88;;;10.53;71.34
75063;BME280;63981;51.052;13.754;2023-04-01T03:46:45;98656.38;;;10.48;71.39
75063;BME280;63981;51.052;13.754;2023-04-01T03:49:11;98656.09;;;10.60;71.33
75063;BME280;63981;51.052;13.754;2023-04-01T03:51:42;98667.84;;;10.66;71.24
75063;BME280;63981;51.052;13.754;2023-04-01T03:54:08;98664.13;;;10.40;72.00
75063;BME280;63981;51.052;13.754;2023-04-01T03:56:34;98665.81;;;10.31;71.89
75063;BME280;63981;51.052;13.754;2023-04-01T03:59:05;98620.88;;;10.03;71.76
75063;BME280;63981;51.052;13.754;2023-04-01T04:01:32;98675.94;;;10.45;71.30
75063;BME280;63981;51.052;13.754;2023-04-01T04:03:58;98677.84;;;10.24;72.08
75063;BME280;63981;51.052;13.754;2023-04-01T04:06:25;98619.03;;;9.85;72.36
75063;BME280;63981;51.052;13.754;2023-04-01T04:08:51;98624.34;;;10.23;71.32
75063;BME280;63981;51.052;13.754;2023-04-01T04:11:19;98664.84;;;10.32;71.80
75063;BME280;63981;51.052;13.754;2023-04-01T04:13:46;98666.91;;;10.38;71.09
75063;BME280;63981;51.052;13.754;2023-04-01T04:16:15;98659.94;;;10.18;71.62
75063;BME280;63981;51.052;13.754;2023-04-01T04:18:45;98670.50;;;10.37;71.14
75063;BME280;63981;51.052;13.754;2023-04-01T04:21:13;98642.34;;;10.28;71.01
75063;BME280;63981;51.052;13.754;2023-04-01T04:23:39;98685.63;;;10.45;70.58
75063;BME280;63981;51.052;13.754;2023-04-01T04:26:11;98677.31;;;10.49;70.67
75063;BME280;63981;51.052;13.754;2023-04-01T04:28:38;98605.63;;;10.07;70.01
75063;BME280;63981;51.052;13.754;2023-04-01T04:31:04;98686.47;;;10.55;70.51
75063;BME280;63981;51.052;13.754;2023-04-01T04:33:32;98691.44;;;10.48;70.29
75063;BME280;63981;51.052;13.754;2023-04-01T04:35:59;98651.78;;;10.40;69.78
75063;BME280;63981;51.052;13.754;2023-04-01T04:38:26;98688.25;;;10.74;69.17
75063;BME280;63981;51.052;13.754;2023-04-01T04:40:53;98678.44;;;10.56;69.62
75063;BME280;63981;51.052;13.754;2023-04-01T04:43:19;98686.88;;;10.60;69.64
75063;BME280;63981;51.052;13.754;2023-04-01T04:45:45;98666.34;;;10.54;69.19
75063;BME280;63981;51.052;13.754;2023-04-01T04:48:12;98664.72;;;10.43;69.78
75063;BME280;63981;51.052;13.754;2023-04-01T04:50:48;98699.22;;;10.69;69.85
75063;BME280;63981;51.052;13.754;2023-04-01T04:53:17;98685.63;;;10.54;69.29
75063;BME280;63981;51.052;13.754;2023-04-01T04:55:45;98706.16;;;10.70;68.87
75063;BME280;63981;51.052;13.754;2023-04-01T04:58:22;98704.47;;;10.79;69.08
75063;BME280;63981;51.052;13.754;2023-04-01T05:00:48;98684.63;;;10.65;68.29
75063;BME280;63981;51.052;13.754;2023-04-01T05:03:25;98709.31;;;10.54;69.47
75063;BME280;63981;51.052;13.754;2023-04-01T05:05:53;98693.09;;;10.40;70.02
75063;BME280;63981;51.052;13.754;2023-04-01T05:08:19;98714.31;;;10.86;69.07
75063;BME280;63981;51.052;13.754;2023-04-01T05:10:46;98651.94;;;10.39;68.70
75063;BME280;63981;51.052;13.754;2023-04-01T05:13:12;98713.50;;;10.76;68.38
75063;BME280;63981;51.052;13.754;2023-04-01T05:15:39;98709.03;;;10.67;69.30
75063;BME280;63981;51.052;13.754;2023-04-01T05:18:05;98712.09;;;10.91;68.10
75063;BME280;63981;51.052;13.754;2023-04-01T05:20:31;98719.16;;;11.01;67.85
75063;BME280;63981;51.052;13.754;2023-04-01T05:22:58;98719.44;;;11.07;68.01
75063;BME280;63981;51.052;13.754;2023-04-01T05:25:24;98710.47;;;10.81;68.04
75063;BME280;63981;51.052;13.754;2023-04-01T05:27:50;98702.94;;;10.86;67.96
75063;BME280;63981;51.052;13.754;2023-04-01T05:30:16;98711.53;;;10.88;68.07
75063;BME280;63981;51.052;13.754;2023-04-01T05:33:07;98700.53;;;11.12;67.19
75063;BME280;63981;51.052;13.754;2023-04-01T05:35:33;98727.59;;;11.04;67.29
75063;BME280;63981;51.052;13.754;2023-04-01T05:37:59;98731.50;;;10.90;68.85
75063;BME280;63981;51.052;13.754;2023-04-01T05:40:25;98649.84;;;10.71;67.42
75063;BME280;63981;51.052;13.754;2023-04-01T05:42:51;98695.00;;;11.05;66.79
75063;BME280;63981;51.052;13.754;2023-04-01T05:45:17;98649.56;;;10.64;67.67
75063;BME280;63981;51.052;13.754;2023-04-01T05:48:05;98714.03;;;10.99;67.96
75063;BME280;63981;51.052;13.754;2023-04-01T05:50:36;98690.69;;;11.04;67.24
75063;BME280;63981;51.052;13.754;2023-04-01T05:53:03;98730.44;;;11.49;66.88
75063;BME280;63981;51.052;13.754;2023-04-01T05:55:28;98728.72;;;11.11;68.22
75063;BME280;63981;51.052;13.754;2023-04-01T05:57:54;98729.94;;;11.27;67.18
75063;BME280;63981;51.052;13.754;2023-04-01T06:00:20;98734.50;;;11.34;67.86
75063;BME280;63981;51.052;13.754;2023-04-01T06:02:46;98738.00;;;11.06;68.78
75063;BME280;63981;51.052;13.754;2023-04-01T06:05:22;98705.44;;;10.97;67.99
75063;BME280;63981;51.052;13.754;2023-04-01T06:07:51;98687.41;;;10.83;68.74
75063;BME280;63981;51.052;13.754;2023-04-01T06:10:20;98740.81;;;10.95;69.59
75063;BME280;63981;51.052;13.754;2023-04-01T06:15:28;98743.56;;;11.03;69.45
75063;BME280;63981;51.052;13.754;2023-04-01T06:26:53;98711.63;;;11.15;67.89
75063;BME280;63981;51.052;13.754;2023-04-01T06:29:34;98703.75;;;11.52;65.94
75063;BME280;63981;51.052;13.754;2023-04-01T06:40:40;98745.06;;;12.08;65.07
75063;BME280;63981;51.052;13.754;2023-04-01T06:55:38;98709.78;;;12.27;61.73
75063;BME280;63981;51.052;13.754;2023-04-01T07:00:48;98708.91;;;12.09;61.75
75063;BME280;63981;51.052;13.754;2023-04-01T07:03:29;98755.94;;;12.86;61.19
75063;BME280;63981;51.052;13.754;2023-04-01T07:06:02;98749.91;;;12.58;61.44
75063;BME280;63981;51.052;13.754;2023-04-01T07:08:31;98734.78;;;12.86;60.34
75063;BME280;63981;51.052;13.754;2023-04-01T07:11:05;98755.50;;;12.91;60.30
75063;BME280;63981;51.052;13.754;2023-04-01T07:13:54;98715.59;;;12.49;59.95
75063;BME280;63981;51.052;13.754;2023-04-01T07:16:33;98682.81;;;12.24;60.24
75063;BME280;63981;51.052;13.754;2023-04-01T07:19:06;98684.25;;;12.18;61.14
75063;BME280;63981;51.052;13.754;2023-04-01T07:25:43;98748.22;;;12.39;60.21
75063;BME280;63981;51.052;13.754;2023-04-01T07:28:31;98754.13;;;12.51;60.40
75063;BME280;63981;51.052;13.754;2023-04-01T07:47:08;98778.59;;;13.24;58.02
75063;BME280;63981;51.052;13.754;2023-04-01T07:52:29;98733.22;;;12.58;59.33
75063;BME280;63981;51.052;13.754;2023-04-01T08:01:28;98738.34;;;12.77;58.73
75063;BME280;63981;51.052;13.754;2023-04-01T08:06:45;98772.78;;;12.85;58.52
75063;BME280;63981;51.052;13.754;2023-04-01T08:12:38;98800.19;;;13.38;58.77
75063;BME280;63981;51.052;13.754;2023-04-01T08:18:41;98806.50;;;14.31;56.91
75063;BME280;63981;51.052;13.754;2023-04-01T08:21:41;98802.38;;;14.28;55.47
75063;BME280;63981;51.052;13.754;2023-04-01T08:24:22;98784.44;;;14.48;54.23
75063;BME280;63981;51.052;13.754;2023-04-01T08:26:55;98804.03;;;14.80;54.73
75063;BME280;63981;51.052;13.754;2023-04-01T08:29:41;98802.56;;;14.93;54.47
75063;BME280;63981;51.052;13.754;2023-04-01T08:32:13;98777.03;;;14.76;53.58
75063;BME280;63981;51.052;13.754;2023-04-01T08:34:45;98802.59;;;15.01;54.20
75063;BME280;63981;51.052;13.754;2023-04-01T08:37:25;98806.09;;;15.26;52.56
75063;BME280;63981;51.052;13.754;2023-04-01T08:40:28;98803.56;;;15.09;52.22
75063;BME280;63981;51.052;13.754;2023-04-01T08:51:53;98816.06;;;14.50;54.49
75063;BME280;63981;51.052;13.754;2023-04-01T08:54:25;98819.00;;;13.52;56.49
75063;BME280;63981;51.052;13.754;2023-04-01T08:57:35;98808.28;;;14.14;55.92
75063;BME280;63981;51.052;13.754;2023-04-01T09:00:41;98783.63;;;14.64;55.02
75063;BME280;63981;51.052;13.754;2023-04-01T09:03:34;98819.78;;;14.73;54.64
75063;BME280;63981;51.052;13.754;2023-04-01T09:06:29;98815.69;;;15.03;53.03
75063;BME280;63981;51.052;13.754;2023-04-01T09:12:35;98817.06;;;14.57;53.27
75063;BME280;63981;51.052;13.754;2023-04-01T09:20:46;98816.78;;;14.60;54.18
75063;BME280;63981;51.052;13.754;2023-04-01T09:28:28;98766.16;;;14.03;54.48
75063;BME280;63981;51.052;13.754;2023-04-01T09:31:37;98746.53;;;13.53;55.36
75063;BME280;63981;51.052;13.754;2023-04-01T09:34:54;98818.50;;;14.43;54.78
75063;BME280;63981;51.052;13.754;2023-04-01T09:43:12;98830.41;;;14.39;54.17
75063;BME280;63981;51.052;13.754;2023-04-01T09:49:02;98825.94;;;14.73;53.68
75063;BME280;63981;51.052;13.754;2023-04-01T09:51:36;98833.56;;;14.77;53.26
75063;BME280;63981;51.052;13.754;2023-04-01T10:00:15;98823.47;;;14.88;52.99
75063;BME280;63981;51.052;13.754;2023-04-01T10:06:16;98835.25;;;14.86;53.13
75063;BME280;63981;51.052;13.754;2023-04-01T10:11:59;98828.59;;;14.90;51.84
75063;BME280;63981;51.052;13.754;2023-04-01T10:17:25;98838.31;;;14.65;53.06
75063;BME280;63981;51.052;13.754;2023-04-01T10:31:02;98846.41;;;14.21;55.36
75063;BME280;63981;51.052;13.754;2023-04-01T10:39:38;98797.78;;;13.44;56.35
75063;BME280;63981;51.052;13.754;2023-04-01T10:56:59;98842.69;;;14.90;52.69
75063;BME280;63981;51.052;13.754;2023-04-01T11:00:53;98846.69;;;14.86;52.75
75063;BME280;63981;51.052;13.754;2023-04-01T11:20:06;98836.25;;;17.08;50.53
75063;BME280;63981;51.052;13.754;2023-04-01T11:25:36;98837.91;;;16.47;52.39
75063;BME280;63981;51.052;13.754;2023-04-01T11:39:58;98838.13;;;21.76;37.85
75063;BME280;63981;51.052;13.754;2023-04-01T11:46:33;98849.19;;;18.53;45.51
75063;BME280;63981;51.052;13.754;2023-04-01T11:49:21;98857.69;;;15.40;55.58
75063;BME280;63981;51.052;13.754;2023-04-01T12:03:34;98841.00;;;19.49;47.75
75063;BME280;63981;51.052;13.754;2023-04-01T12:06:19;98817.94;;;19.97;45.98
75063;BME280;63981;51.052;13.754;2023-04-01T12:11:41;98831.97;;;18.71;46.95
75063;BME280;63981;51.052;13.754;2023-04-01T12:17:39;98831.44;;;22.31;39.90
75063;BME280;63981;51.052;13.754;2023-04-01T12:23:07;98823.75;;;23.81;36.21
75063;BME280;63981;51.052;13.754;2023-04-01T12:26:35;98844.94;;;19.74;42.77
75063;BME280;63981;51.052;13.754;2023-04-01T12:45:59;98853.84;;;15.18;57.19
75063;BME280;63981;51.052;13.754;2023-04-01T13:02:27;98854.13;;;16.99;51.72
75063;BME280;63981;51.052;13.754;2023-04-01T13:08:09;98812.31;;;17.08;50.24
75063;BME280;63981;51.052;13.754;2023-04-01T13:10:57;98853.81;;;17.40;51.12
75063;BME280;63981;51.052;13.754;2023-04-01T13:13:38;98854.09;;;17.68;50.72
75063;BME280;63981;51.052;13.754;2023-04-01T13:16:14;98845.25;;;17.30;50.68
75063;BME280;63981;51.052;13.754;2023-04-01T13:21:20;98848.09;;;18.77;47.62
75063;BME280;63981;51.052;13.754;2023-04-01T13:29:16;98842.38;;;23.82;37.62
75063;BME280;63981;51.052;13.754;2023-04-01T13:32:11;98843.25;;;24.93;31.00
75063;BME280;63981;51.052;13.754;2023-04-01T13:35:26;98861.22;;;22.10;35.70
75063;BME280;63981;51.052;13.754;2023-04-01T13:43:58;98862.97;;;18.86;43.28
75063;BME280;63981;51.052;13.754;2023-04-01T13:46:49;98857.19;;;23.04;35.84
75063;BME280;63981;51.052;13.754;2023-04-01T14:06:50;98864.28;;;20.39;38.12
75063;BME280;63981;51.052;13.754;2023-04-01T14:18:07;98877.84;;;17.78;47.03
75063;BME280;63981;51.052;13.754;2023-04-01T14:21:03;98810.69;;;17.22;47.27
75063;BME280;63981;51.052;13.754;2023-04-01T14:29:55;98877.97;;;16.45;50.60
75063;BME280;63981;51.052;13.754;2023-04-01T14:40:28;98885.16;;;16.84;48.92
75063;BME280;63981;51.052;13.754;2023-04-01T14:43:20;98902.88;;;15.81;51.58
75063;BME280;63981;51.052;13.754;2023-04-01T14:48:36;98896.25;;;15.77;52.41
75063;BME280;63981;51.052;13.754;2023-04-01T14:51:20;98871.25;;;16.18;50.58
75063;BME280;63981;51.052;13.754;2023-04-01T14:57:20;98896.84;;;18.86;44.71
75063;BME280;63981;51.052;13.754;2023-04-01T15:04:37;98892.81;;;21.75;35.79
75063;BME280;63981;51.052;13.754;2023-04-01T15:12:39;98910.19;;;20.64;36.93
75063;BME280;63981;51.052;13.754;2023-04-01T15:18:07;98925.41;;;18.85;40.75
75063;BME280;63981;51.052;13.754;2023-04-01T15:20:43;98922.81;;;18.48;42.54
75063;BME280;63981;51.052;13.754;2023-04-01T15:23:24;98929.38;;;17.16;45.65
75063;BME280;63981;51.052;13.754;2023-04-01T15:36:41;98946.34;;;16.20;49.76
75063;BME280;63981;51.052;13.754;2023-04-01T15:39:14;98942.53;;;16.07;49.75
75063;BME280;63981;51.052;13.754;2023-04-01T15:44:55;98958.59;;;15.48;52.23
75063;BME280;63981;51.052;13.754;2023-04-01T15:50:28;98962.88;;;15.25;51.81
75063;BME280;63981;51.052;13.754;2023-04-01T15:52:49;98961.28;;;14.90;53.04
75063;BME280;63981;51.052;13.754;2023-04-01T16:00:58;98977.78;;;14.75;54.43
75063;BME280;63981;51.052;13.754;2023-04-01T16:03:53;98975.38;;;14.90;52.15
75063;BME280;63981;51.052;13.754;2023-04-01T16:09:05;98973.38;;;13.88;54.39
75063;BME280;63981;51.052;13.754;2023-04-01T16:11:59;98982.06;;;13.99;54.64
75063;BME280;63981;51.052;13.754;2023-04-01T16:17:48;98990.88;;;13.46;56.59
75063;BME280;63981;51.052;13.754;2023-04-01T16:20:21;98935.19;;;13.20;56.23
75063;BME280;63981;51.052;13.754;2023-04-01T16:23:02;98988.84;;;13.57;56.26
75063;BME280;63981;51.052;13.754;2023-04-01T16:25:40;98989.66;;;13.58;56.96
75063;BME280;63981;51.052;13.754;2023-04-01T16:28:37;98993.78;;;13.25;57.90
75063;BME280;63981;51.052;13.754;2023-04-01T16:31:16;98997.44;;;13.14;57.67
75063;BME280;63981;51.052;13.754;2023-04-01T16:34:03;99000.78;;;13.44;57.72
75063;BME280;63981;51.052;13.754;2023-04-01T16:41:32;99016.75;;;13.87;57.38
75063;BME280;63981;51.052;13.754;2023-04-01T16:44:20;99009.88;;;13.95;57.63
75063;BME280;63981;51.052;13.754;2023-04-01T16:46:52;99019.81;;;13.30;59.34
75063;BME280;63981;51.052;13.754;2023-04-01T16:49:44;99027.28;;;13.07;60.59
75063;BME280;63981;51.052;13.754;2023-04-01T16:52:15;98928.94;;;12.29;62.16
75063;BME280;63981;51.052;13.754;2023-04-01T17:00:28;99041.66;;;12.57;63.66
75063;BME280;63981;51.052;13.754;2023-04-01T17:03:04;98987.38;;;12.06;63.96
75063;BME280;63981;51.052;13.754;2023-04-01T17:05:55;99051.31;;;12.39;65.36
75063;BME280;63981;51.052;13.754;2023-04-01T17:16:40;99072.47;;;12.00;68.03
75063;BME280;63981;51.052;13.754;2023-04-01T17:22:13;99030.44;;;11.49;70.88
75063;BME280;63981;51.052;13.754;2023-04-01T17:30:19;99091.78;;;11.41;72.11
75063;BME280;63981;51.052;13.754;2023-04-01T17:33:10;99084.81;;;11.31;71.38
75063;BME280;63981;51.052;13.754;2023-04-01T17:36:11;99088.63;;;11.17;74.09
75063;BME280;63981;51.052;13.754;2023-04-01T17:38:56;99091.50;;;11.04;75.17
75063;BME280;63981;51.052;13.754;2023-04-01T17:41:43;99101.09;;;11.05;74.53
75063;BME280;63981;51.052;13.754;2023-04-01T17:44:52;99090.81;;;11.02;74.48
75063;BME280;63981;51.052;13.754;2023-04-01T17:47:41;99026.16;;;10.47;76.21
75063;BME280;63981;51.052;13.754;2023-04-01T17:59:04;99109.75;;;10.86;77.20
75063;BME280;63981;51.052;13.754;2023-04-01T18:01:57;99116.13;;;10.84;77.40
75063;BME280;63981;51.052;13.754;2023-04-01T18:07:13;99123.13;;;10.74;77.90
75063;BME280;63981;51.052;13.754;2023-04-01T18:09:48;99115.63;;;10.69;78.63
75063;BME280;63981;51.052;13.754;2023-04-01T18:18:31;99119.59;;;10.63;78.90
75063;BME280;63981;51.052;13.754;2023-04-01T18:21:10;99124.38;;;10.70;78.44
75063;BME280;63981;51.052;13.754;2023-04-01T18:23:51;99129.09;;;10.76;78.31
75063;BME280;63981;51.052;13.754;2023-04-01T18:31:51;99138.47;;;10.89;77.49
75063;BME280;63981;51.052;13.754;2023-04-01T18:39:57;99052.38;;;10.27;77.46
75063;BME280;63981;51.052;13.754;2023-04-01T18:42:46;99147.75;;;10.84;77.14
75063;BME280;63981;51.052;13.754;2023-04-01T18:45:31;99146.66;;;10.66;77.76
75063;BME280;63981;51.052;13.754;2023-04-01T18:50:58;99158.59;;;10.49;78.62
75063;BME280;63981;51.052;13.754;2023-04-01T18:53:44;99162.19;;;10.48;77.90
75063;BME280;63981;51.052;13.754;2023-04-01T18:56:14;99173.00;;;10.45;78.66
75063;BME280;63981;51.052;13.754;2023-04-01T18:59:16;99175.31;;;10.59;78.14
75063;BME280;63981;51.052;13.754;2023-04-01T19:07:42;99183.97;;;10.50;79.23
75063;BME280;63981;51.052;13.754;2023-04-01T19:13:15;99194.44;;;10.40;80.21
75063;BME280;63981;51.052;13.754;2023-04-01T19:21:44;99124.19;;;9.97;80.11
75063;BME280;63981;51.052;13.754;2023-04-01T19:24:19;99193.81;;;10.48;80.86
75063;BME280;63981;51.052;13.754;2023-04-01T19:27:02;99195.88;;;10.44;80.42
75063;BME280;63981;51.052;13.754;2023-04-01T19:40:54;99221.38;;;10.44;81.11
75063;BME280;63981;51.052;13.754;2023-04-01T19:43:43;99209.22;;;10.31;81.40
75063;BME280;63981;51.052;13.754;2023-04-01T19:46:29;99225.38;;;10.16;82.23
75063;BME280;63981;51.052;13.754;2023-04-01T19:51:55;99227.91;;;10.17;82.10
75063;BME280;63981;51.052;13.754;2023-04-01T20:00:37;99218.69;;;10.12;81.99
75063;BME280;63981;51.052;13.754;2023-04-01T20:03:45;99232.59;;;10.57;81.26
75063;BME280;63981;51.052;13.754;2023-04-01T20:14:50;99264.81;;;10.49;81.16
75063;BME280;63981;51.052;13.754;2023-04-01T20:17:23;99270.34;;;10.46;81.31
75063;BME280;63981;51.052;13.754;2023-04-01T20:20:00;99226.31;;;10.26;81.38
75063;BME280;63981;51.052;13.754;2023-04-01T20:25:57;99275.88;;;10.43;81.04
75063;BME280;63981;51.052;13.754;2023-04-01T20:30:55;99275.72;;;10.56;81.04
75063;BME280;63981;51.052;13.754;2023-04-01T20:33:41;99272.84;;;10.48;81.58
75063;BME280;63981;51.052;13.754;2023-04-01T20:41:30;99267.38;;;10.28;81.45
75063;BME280;63981;51.052;13.754;2023-04-01T20:53:07;99293.56;;;10.41;80.86
75063;BME280;63981;51.052;13.754;2023-04-01T21:07:04;99312.38;;;10.48;81.61
75063;BME280;63981;51.052;13.754;2023-04-01T21:09:48;99318.03;;;10.43;81.97
75063;BME280;63981;51.052;13.754;2023-04-01T21:17:40;99327.00;;;10.41;82.49
75063;BME280;63981;51.052;13.754;2023-04-01T21:28:35;99339.56;;;10.37;82.23
75063;BME280;63981;51.052;13.754;2023-04-01T21:34:28;99345.56;;;10.28;84.33
75063;BME280;63981;51.052;13.754;2023-04-01T21:40:11;99346.16;;;10.43;83.27
75063;BME280;63981;51.052;13.754;2023-04-01T21:45:47;99357.31;;;10.35;83.56
75063;BME280;63981;51.052;13.754;2023-04-01T22:07:20;99378.53;;;9.76;85.97
75063;BME280;63981;51.052;13.754;2023-04-01T22:15:52;99381.78;;;9.68;86.17
75063;BME280;63981;51.052;13.754;2023-04-01T22:21:04;99362.81;;;9.41;86.24
75063;BME280;63981;51.052;13.754;2023-04-01T22:23:39;99382.66;;;9.45;87.23
75063;BME280;63981;51.052;13.754;2023-04-01T22:29:09;99397.59;;;9.44;87.12
75063;BME280;63981;51.052;13.754;2023-04-01T22:31:51;99404.34;;;9.60;86.44
75063;BME280;63981;51.052;13.754;2023-04-01T22:37:23;99412.84;;;9.63;85.86